Au Sable Forks, NY

2:58 AM EST on December 20, 2014 (GMT -0500)
AuSable River | Change Station
CLOSE
Current Station
Personal Weather Station
Location: Wilmington, NY
Elevation: 1014 ft
Nearby Weather Stations

Elev 1014 ft 44.40 °N, 73.80 °W | Updated 4 seconds ago

Partly Cloudy
Partly Cloudy
7.8 °F
Feels Like 8 °F
N
0.0
Wind Variable Wind from West

Today
High -- | Low -- °F
--% Chance of Precip.
Yesterday
High -- | Low -- °F
Precip. -- in
7:27 AM 4:17 PM
Waning Crescent, 4% visible
Pressure 30.29 in
Visibility 10.0 miles
Clouds Clear
Windchill 8 °F
Dew Point 5 °F
Humidity 89%
Rainfall 0.00 in
Snow Depth Not available.
UV 0 out of 12
Pollen .10 out of 12
Air Quality Not available.
Flu Activity Not available.
METAR KPBG 200753Z AUTO 00000KT 10SM CLR M13/M14 A3027 RMK AO2 SLP255 I1000 T11281139

More Conditions Fewer Conditions

Pressure 30.29 in
Visibility 10.0 miles
Clouds Clear
Windchill 8 °F
Dew Point 5 °F
Humidity 89%
Rainfall 0.00 in
Snow Depth Not available.
UV 0 out of 12
Pollen .10 out of 12
Air Quality Not available.
Flu Activity Not available.
METAR KPBG 200753Z AUTO 00000KT 10SM CLR M13/M14 A3027 RMK AO2 SLP255 I1000 T11281139

More Conditions Fewer Conditions

10-Day Weather Forecast

Almanac

Astronomy

Dec. 20, 2014 Rise Set
Actual Time
Civil Twilight
Nautical Twilight
Astronomical Twilight
Moon
Length of Visible Light
Length of Day
Tomorrow will be .
, % of the Moon is Illuminated

Today's Extremes

State Highs State Lows

Community

WunderPhotos

Upload Photos

1,779,146 photos uploaded!

WunderBlogs® & News

Nearby

Air Quality

  Air Quality AQ Index Pollutant
Not available.

Snow Depth

Station Depth Elevation

Earthquake Activity

City Distance Mag. Time & Date
Minimum magnitude displayed is 2.5.

Coastal Water Temperatures

Place Temperature

Nearby Weather Stations